Time;durP1;ratioP1;P1;durP2;ratioP2;P2;SDS_P1;SDS_P2;PMS_P1;PMS_P2;Temp;Humidity;BMP_temperature;BMP_pressure;BME280_temperature;BME280_humidity;BME280_pressure;Samples;Min_cycle;Max_cycle;Signal;HPM_P1;HPM_P2
2021/12/23 00:00:15;;;;;;;11.70;7.78;;;-1.20;99.90;;;;;;5097752;28;19922;-82
2021/12/23 00:02:59;;;;;;;17.10;10.20;;;-1.30;99.90;;;;;;5113526;28;20084;-82
2021/12/23 00:05:43;;;;;;;21.00;10.60;;;-1.30;99.90;;;;;;5083961;28;20047;-82
2021/12/23 00:08:27;;;;;;;;;;;-1.20;99.90;;;;;;5098702;28;20039;-82
2021/12/23 00:11:12;;;;;;;16.77;9.48;;;-0.60;99.90;;;;;;5097543;28;20018;-82
2021/12/23 00:14:03;;;;;;;18.47;10.37;;;0.10;99.90;;;;;;5098288;28;20051;-82
2021/12/23 00:16:55;;;;;;;13.67;9.73;;;-1.20;99.90;;;;;;5098010;28;20042;-82
2021/12/23 00:19:49;;;;;;;17.07;10.27;;;1.20;99.90;;;;;;5112345;28;20092;-82
2021/12/23 00:25:38;;;;;;;17.38;10.63;;;-1.10;99.90;;;;;;5113260;28;20169;-82
2021/12/23 00:28:23;;;;;;;17.20;10.40;;;-1.10;99.90;;;;;;5083009;28;20180;-82
2021/12/23 00:31:07;;;;;;;18.87;11.67;;;-1.10;99.90;;;;;;5112693;28;20081;-82
2021/12/23 00:33:51;;;;;;;15.77;9.80;;;-1.10;99.90;;;;;;5097945;28;20131;-82
2021/12/23 00:36:36;;;;;;;;;;;-1.00;99.90;;;;;;5113486;28;20157;-82
2021/12/23 00:39:21;;;;;;;19.27;10.73;;;-1.10;99.90;;;;;;5096967;28;20002;-82
2021/12/23 00:42:07;;;;;;;15.27;10.10;;;-1.00;99.90;;;;;;5097290;28;20155;-82
2021/12/23 00:44:51;;;;;;;19.40;10.03;;;-1.00;99.90;;;;;;5109144;28;20356;-82
2021/12/23 00:47:35;;;;;;;;;;;-0.50;99.90;;;;;;5112298;28;20046;-82
2021/12/23 00:50:21;;;;;;;17.00;10.07;;;-0.80;99.90;;;;;;5112165;28;19952;-82
2021/12/23 00:53:08;;;;;;;16.07;9.77;;;-1.00;99.90;;;;;;5083828;28;20506;-82
2021/12/23 00:55:54;;;;;;;19.17;10.83;;;-1.00;99.90;;;;;;5112974;28;20038;-82
2021/12/23 00:58:39;;;;;;;19.83;11.77;;;-0.90;99.90;;;;;;5097883;28;20043;-81
2021/12/23 01:01:24;;;;;;;18.67;11.33;;;-0.90;99.90;;;;;;5111226;28;20073;-82
2021/12/23 01:04:07;;;;;;;17.20;11.10;;;-0.90;99.90;;;;;;5112731;28;20566;-82
2021/12/23 01:06:52;;;;;;;19.63;11.83;;;-0.80;99.90;;;;;;5112807;28;20137;-81
2021/12/23 01:09:36;;;;;;;19.73;10.90;;;-0.90;99.90;;;;;;5097540;28;20227;-82
2021/12/23 01:12:26;;;;;;;;;;;-0.80;99.90;;;;;;5097202;28;20062;-82
2021/12/23 01:15:16;;;;;;;15.00;10.47;;;-0.80;99.90;;;;;;5111559;28;19915;-82
2021/12/23 01:18:10;;;;;;;17.40;10.67;;;-0.40;99.90;;;;;;5111680;28;20441;-81
2021/12/23 01:21:03;;;;;;;17.70;11.17;;;-0.80;99.90;;;;;;5111752;28;20518;-81
2021/12/23 01:23:52;;;;;;;21.80;11.63;;;-0.80;99.90;;;;;;5098532;28;20051;-82
2021/12/23 01:26:37;;;;;;;18.40;10.37;;;-0.10;99.90;;;;;;5112176;28;20038;-82
2021/12/23 01:29:21;;;;;;;17.53;9.87;;;-0.70;99.90;;;;;;5110687;28;20046;-82
2021/12/23 01:32:07;;;;;;;18.23;11.57;;;-0.70;99.90;;;;;;5115398;28;20070;-81
2021/12/23 01:34:51;;;;;;;16.70;10.40;;;-0.70;99.90;;;;;;5115542;28;20043;-82
2021/12/23 01:37:37;;;;;;;18.50;11.37;;;-0.60;99.90;;;;;;5129373;27;20092;-82
2021/12/23 01:40:24;;;;;;;19.30;11.60;;;-0.60;99.90;;;;;;5100727;28;20074;-82
2021/12/23 01:43:08;;;;;;;18.40;12.00;;;-0.60;99.90;;;;;;5115101;28;20130;-82
2021/12/23 01:45:52;;;;;;;;;;;-0.60;99.90;;;;;;5101326;28;20092;-81
2021/12/23 01:48:36;;;;;;;19.30;10.57;;;-0.10;99.90;;;;;;5115012;28;20012;-82
2021/12/23 01:51:21;;;;;;;19.23;11.57;;;-0.30;99.90;;;;;;5100163;28;20096;-82
2021/12/23 01:54:05;;;;;;;20.37;11.10;;;-0.50;99.90;;;;;;5116247;28;20088;-82
2021/12/23 01:56:50;;;;;;;20.40;11.60;;;-0.50;99.90;;;;;;5116207;28;20034;-82
2021/12/23 01:59:34;;;;;;;20.37;11.97;;;-0.50;99.90;;;;;;5071702;28;20041;-82
2021/12/23 02:02:18;;;;;;;17.30;12.63;;;-0.50;99.90;;;;;;5100059;28;20066;-83
2021/12/23 02:05:03;;;;;;;;;;;0.20;99.90;;;;;;5116399;28;20453;-81
2021/12/23 02:07:48;;;;;;;19.50;11.87;;;-0.50;99.90;;;;;;5115915;28;20279;-82
2021/12/23 02:10:32;;;;;;;23.67;12.73;;;-0.60;99.90;;;;;;5115297;28;20166;-82
2021/12/23 02:13:17;;;;;;;18.37;12.03;;;-0.60;99.90;;;;;;5100444;28;20080;-81
2021/12/23 02:16:02;;;;;;;18.73;12.23;;;-0.30;99.90;;;;;;5100361;28;20046;-82
2021/12/23 02:18:46;;;;;;;19.80;12.50;;;-0.60;99.90;;;;;;5100225;28;20039;-82
2021/12/23 02:21:30;;;;;;;19.37;12.33;;;-0.60;99.90;;;;;;5089679;28;20096;-82
2021/12/23 02:24:16;;;;;;;25.70;13.53;;;-0.60;99.90;;;;;;5065737;28;20131;-82
2021/12/23 02:27:00;;;;;;;19.93;12.23;;;-0.60;99.90;;;;;;5080036;28;20113;-82
2021/12/23 02:29:44;;;;;;;;;;;-0.60;99.90;;;;;;5095136;28;20138;-82
2021/12/23 02:32:29;;;;;;;20.75;12.18;;;0.30;99.90;;;;;;5079269;28;20052;-82
2021/12/23 02:35:16;;;;;;;20.60;12.93;;;-0.60;99.90;;;;;;5090014;28;20399;-82
2021/12/23 02:38:00;;;;;;;18.60;11.07;;;-0.60;99.90;;;;;;5115346;28;20057;-82
2021/12/23 02:40:45;;;;;;;23.33;12.97;;;-0.50;99.90;;;;;;5099335;28;20088;-82
2021/12/23 02:43:29;;;;;;;27.23;12.87;;;-0.60;99.90;;;;;;5098154;28;20181;-82
2021/12/23 02:46:17;;;;;;;21.23;12.77;;;-0.60;99.90;;;;;;5099849;28;20034;-82
2021/12/23 02:49:03;;;;;;;18.07;11.67;;;-0.50;99.90;;;;;;5099391;28;20478;-82
2021/12/23 02:51:47;;;;;;;21.13;12.50;;;-0.60;99.90;;;;;;5084849;28;20122;-82
2021/12/23 02:54:32;;;;;;;21.77;12.47;;;-0.60;99.90;;;;;;5084816;28;20126;-82
2021/12/23 02:57:16;;;;;;;19.53;13.20;;;-0.50;99.90;;;;;;5085332;28;20088;-82
2021/12/23 03:00:00;;;;;;;;;;;-0.50;99.90;;;;;;5099926;28;20043;-82
2021/12/23 03:02:45;;;;;;;21.67;13.40;;;0.60;99.90;;;;;;5098800;28;20508;-82
2021/12/23 03:05:29;;;;;;;;;;;-0.50;99.90;;;;;;5114646;28;20043;-83
2021/12/23 03:08:13;;;;;;;25.20;12.80;;;-0.50;99.90;;;;;;5084789;28;19933;-82
2021/12/23 03:10:58;;;;;;;20.90;12.90;;;0.60;99.90;;;;;;5085053;28;20065;-82
2021/12/23 03:13:43;;;;;;;21.23;12.57;;;-0.50;99.90;;;;;;5084339;28;20050;-82
2021/12/23 03:16:30;;;;;;;27.20;13.27;;;-0.10;99.90;;;;;;5114397;28;20042;-82
2021/12/23 03:19:15;;;;;;;20.47;12.60;;;-0.50;99.90;;;;;;5114250;28;20043;-82
2021/12/23 03:21:59;;;;;;;23.83;13.13;;;0.10;99.90;;;;;;5098943;28;20039;-82
2021/12/23 03:24:44;;;;;;;21.77;12.40;;;-0.40;99.90;;;;;;5084266;28;20092;-82
2021/12/23 03:27:28;;;;;;;20.97;12.23;;;-0.50;99.90;;;;;;5098832;28;20392;-82
2021/12/23 03:30:12;;;;;;;;;;;1.00;99.90;;;;;;5114652;28;20034;-82
2021/12/23 03:32:56;;;;;;;25.70;13.40;;;0.10;99.90;;;;;;5098898;28;19919;-82
2021/12/23 03:35:41;;;;;;;22.95;11.88;;;-0.40;99.90;;;;;;5113705;28;20046;-82
2021/12/23 03:38:26;;;;;;;19.17;12.23;;;-0.40;99.90;;;;;;5114215;28;20042;-82
2021/12/23 03:41:10;;;;;;;23.60;12.70;;;-0.50;99.90;;;;;;5114189;28;20118;-82
2021/12/23 03:43:55;;;;;;;21.80;12.83;;;-0.40;99.90;;;;;;5113486;28;20621;-81
2021/12/23 03:46:40;;;;;;;18.80;11.70;;;-0.50;99.90;;;;;;5113484;28;20399;-82
2021/12/23 03:49:24;;;;;;;25.07;11.87;;;-0.40;99.90;;;;;;5098312;28;20449;-82
2021/12/23 03:52:08;;;;;;;;;;;0.00;99.90;;;;;;5114328;28;20080;-82
2021/12/23 03:54:52;;;;;;;21.02;12.32;;;-0.40;99.90;;;;;;5113195;28;19972;-82
2021/12/23 03:57:36;;;;;;;;;;;-0.40;99.90;;;;;;5113667;28;20039;-82
2021/12/23 04:00:22;;;;;;;22.92;12.13;;;0.20;99.90;;;;;;5113948;28;20476;-81
2021/12/23 04:03:06;;;;;;;18.57;13.30;;;0.40;99.90;;;;;;5113579;28;20457;-82
2021/12/23 04:05:51;;;;;;;21.63;12.47;;;0.00;99.90;;;;;;5097747;28;20113;-82
2021/12/23 04:08:35;;;;;;;19.27;12.47;;;-0.40;99.90;;;;;;5097953;28;20536;-82
2021/12/23 04:11:20;;;;;;;22.60;13.57;;;0.10;99.90;;;;;;5084007;28;20040;-82
2021/12/23 04:14:05;;;;;;;21.93;13.33;;;-0.40;99.90;;;;;;5098069;28;20118;-82
2021/12/23 04:16:49;;;;;;;22.57;12.37;;;-0.40;99.90;;;;;;5097507;28;20119;-82
2021/12/23 04:19:33;;;;;;;22.73;12.73;;;0.60;99.90;;;;;;5097675;28;20069;-81
2021/12/23 04:22:17;;;;;;;;;;;-0.30;99.90;;;;;;5113699;28;20092;-81
2021/12/23 04:25:02;;;;;;;18.80;10.30;;;-0.40;99.90;;;;;;5112888;28;19922;-82
2021/12/23 04:27:49;;;;;;;20.07;12.63;;;-0.30;99.90;;;;;;5083014;28;20441;-82
2021/12/23 04:30:33;;;;;;;23.20;12.17;;;-0.30;99.90;;;;;;5098265;28;20038;-82
2021/12/23 04:33:18;;;;;;;21.07;12.83;;;-0.30;99.90;;;;;;5069663;28;20042;-82
2021/12/23 04:36:03;;;;;;;21.10;13.50;;;-0.30;99.90;;;;;;5097167;28;20115;-82
2021/12/23 04:38:47;;;;;;;23.50;12.70;;;-0.30;99.90;;;;;;5082894;28;20043;-82
2021/12/23 04:41:32;;;;;;;;;;;-0.30;99.90;;;;;;5097800;28;20051;-82
2021/12/23 04:44:16;;;;;;;23.07;13.87;;;-0.20;99.90;;;;;;5113443;28;19923;-82
2021/12/23 04:47:00;;;;;;;;;;;0.10;99.90;;;;;;5112833;28;20495;-81
2021/12/23 04:49:44;;;;;;;21.70;12.73;;;-0.20;99.90;;;;;;5112202;28;20002;-82
2021/12/23 04:52:28;;;;;;;21.67;12.88;;;-0.20;99.90;;;;;;5113097;28;20043;-81
2021/12/23 04:55:14;;;;;;;23.80;13.70;;;-0.20;99.90;;;;;;5097445;28;20104;-81
2021/12/23 04:57:59;;;;;;;26.63;14.43;;;-0.20;99.90;;;;;;5096808;28;20088;-81
2021/12/23 05:00:48;;;;;;;20.87;13.80;;;-0.20;99.90;;;;;;5096880;28;20039;-82
2021/12/23 05:03:32;;;;;;;23.23;12.40;;;1.00;99.90;;;;;;5063424;28;20046;-81
2021/12/23 05:06:17;;;;;;;20.93;12.93;;;0.50;99.90;;;;;;5090843;28;20152;-81
2021/12/23 05:09:02;;;;;;;25.07;12.90;;;-0.20;99.90;;;;;;5076462;28;20085;-82
2021/12/23 05:11:46;;;;;;;22.63;12.83;;;-0.20;99.90;;;;;;5076549;28;20450;-82
2021/12/23 05:14:30;;;;;;;22.73;13.60;;;-0.20;99.90;;;;;;5077208;28;20086;-81
2021/12/23 05:17:15;;;;;;;27.10;13.70;;;-0.20;99.90;;;;;;5063017;28;20043;-81
2021/12/23 05:19:59;;;;;;;23.08;13.25;;;-0.20;99.90;;;;;;5107476;28;20111;-81
2021/12/23 05:22:43;;;;;;;;;;;-0.20;99.90;;;;;;5113021;28;20051;-81
2021/12/23 05:25:27;;;;;;;25.77;14.05;;;-0.20;99.90;;;;;;5097393;28;20052;-81
2021/12/23 05:28:11;;;;;;;;;;;0.50;99.90;;;;;;5112657;28;20039;-81
2021/12/23 05:30:55;;;;;;;23.35;13.32;;;-0.20;99.90;;;;;;5112029;28;19961;-81
2021/12/23 05:33:40;;;;;;;22.77;13.13;;;-0.20;99.90;;;;;;5083068;28;20548;-82
2021/12/23 05:36:24;;;;;;;;;;;-0.20;99.90;;;;;;5112914;28;20147;-82
2021/12/23 05:39:08;;;;;;;27.55;14.45;;;-0.20;99.90;;;;;;5096571;28;20538;-81
2021/12/23 05:41:52;;;;;;;24.80;13.63;;;-0.20;99.90;;;;;;5096375;28;20042;-82
2021/12/23 05:44:36;;;;;;;;;;;-0.10;99.90;;;;;;5112601;28;20453;-81
2021/12/23 05:47:21;;;;;;;21.75;13.23;;;-0.20;99.90;;;;;;5096983;28;19922;-82
2021/12/23 05:50:05;;;;;;;;;;;-0.10;99.90;;;;;;5096542;28;20505;-82
2021/12/23 05:52:51;;;;;;;22.83;13.97;;;-0.10;99.90;;;;;;5096551;28;20010;-83
2021/12/23 05:55:35;;;;;;;24.17;13.77;;;0.30;99.90;;;;;;5096977;28;20035;-81
2021/12/23 05:58:19;;;;;;;20.93;12.67;;;-0.10;99.90;;;;;;5110121;28;20047;-82
2021/12/23 06:01:04;;;;;;;;;;;1.00;99.90;;;;;;5091174;28;20495;-81
2021/12/23 06:03:48;;;;;;;24.98;13.65;;;0.90;99.90;;;;;;5091749;28;19923;-81
2021/12/23 06:06:33;;;;;;;22.90;13.37;;;-0.10;99.90;;;;;;5091991;28;20040;-81
2021/12/23 06:09:17;;;;;;;22.73;13.27;;;-0.10;99.90;;;;;;5076294;28;20043;-81
2021/12/23 06:12:02;;;;;;;21.20;13.93;;;-0.10;99.90;;;;;;5075863;28;20042;-81
2021/12/23 06:14:47;;;;;;;23.43;13.70;;;-0.10;99.90;;;;;;5093527;28;20039;-81
2021/12/23 06:17:31;;;;;;;23.00;13.27;;;0.00;99.90;;;;;;5113040;28;20062;-81
2021/12/23 06:20:15;;;;;;;21.67;13.73;;;0.00;99.90;;;;;;5115097;28;20050;-81
2021/12/23 06:22:59;;;;;;;24.17;14.17;;;0.00;99.90;;;;;;5099455;28;20462;-82
2021/12/23 06:25:44;;;;;;;24.75;14.48;;;0.80;99.90;;;;;;5115400;28;20043;-81
2021/12/23 06:28:28;;;;;;;29.50;14.50;;;0.00;99.90;;;;;;5094795;28;20039;-81
2021/12/23 06:31:13;;;;;;;24.77;14.53;;;0.00;99.90;;;;;;5070578;28;20057;-82
2021/12/23 06:33:57;;;;;;;23.50;14.37;;;0.00;99.90;;;;;;5098702;28;20058;-82
2021/12/23 06:36:42;;;;;;;;;;;0.00;99.90;;;;;;5099711;28;20403;-81
2021/12/23 06:39:28;;;;;;;23.27;14.43;;;0.90;99.90;;;;;;5090368;28;19930;-81
2021/12/23 06:42:12;;;;;;;25.60;15.27;;;0.10;99.90;;;;;;5069243;28;20085;-81
2021/12/23 06:44:57;;;;;;;26.57;15.00;;;0.10;99.90;;;;;;5093147;28;20055;-81
2021/12/23 06:47:42;;;;;;;25.30;14.63;;;1.00;99.90;;;;;;5107392;28;20495;-81
2021/12/23 06:50:26;;;;;;;25.57;14.73;;;0.00;99.90;;;;;;5112422;28;20042;-81
2021/12/23 06:53:12;;;;;;;;;;;0.60;99.90;;;;;;5124157;27;20054;-81
2021/12/23 06:55:56;;;;;;;25.63;15.03;;;0.00;99.90;;;;;;5103244;28;20016;-81
2021/12/23 06:58:41;;;;;;;26.40;13.80;;;0.10;99.90;;;;;;5101800;28;20122;-81
2021/12/23 07:01:25;;;;;;;29.10;15.23;;;0.10;99.90;;;;;;5114314;28;20042;-81
2021/12/23 07:04:17;;;;;;;27.00;16.20;;;0.10;99.90;;;;;;5084375;28;20072;-81
2021/12/23 07:09:54;;;;;;;25.53;15.37;;;0.10;99.90;;;;;;5107728;28;20089;-82
2021/12/23 07:12:39;;;;;;;30.97;15.90;;;0.10;99.90;;;;;;5114784;28;20081;-81
2021/12/23 07:15:24;;;;;;;26.20;15.47;;;0.10;99.90;;;;;;5113039;28;20051;-81
2021/12/23 07:18:09;;;;;;;26.50;15.17;;;0.00;99.90;;;;;;5112672;28;20553;-82
2021/12/23 07:20:53;;;;;;;25.40;15.23;;;0.00;99.90;;;;;;5112466;28;20411;-82
2021/12/23 07:23:38;;;;;;;27.83;16.00;;;0.00;99.90;;;;;;5078087;28;20043;-81
2021/12/23 07:26:22;;;;;;;29.70;15.48;;;0.00;99.90;;;;;;5092334;28;20093;-81
2021/12/23 07:29:06;;;;;;;;;;;0.00;99.90;;;;;;5093330;28;20043;-82
2021/12/23 07:31:50;;;;;;;26.88;15.73;;;0.40;99.90;;;;;;5093804;28;19957;-81
2021/12/23 07:34:34;;;;;;;26.03;16.00;;;0.00;99.90;;;;;;5092966;28;20042;-81
2021/12/23 07:37:20;;;;;;;25.33;15.77;;;0.00;99.90;;;;;;5092101;28;20058;-81
2021/12/23 07:40:06;;;;;;;29.40;16.67;;;0.40;99.90;;;;;;5110736;28;20149;-82
2021/12/23 07:42:58;;;;;;;26.23;16.87;;;0.10;99.90;;;;;;5112439;28;20043;-81
2021/12/23 07:45:42;;;;;;;28.00;15.43;;;0.60;99.90;;;;;;5085457;28;20042;-81
2021/12/23 07:48:27;;;;;;;28.17;16.63;;;0.40;99.90;;;;;;5097795;28;20962;-81
2021/12/23 07:51:11;;;;;;;29.47;17.80;;;0.00;99.90;;;;;;5097734;28;20087;-82
2021/12/23 07:53:55;;;;;;;;;;;0.00;99.90;;;;;;5113461;28;20156;-81
2021/12/23 07:56:39;;;;;;;27.33;16.73;;;0.90;99.90;;;;;;5077552;28;19974;-81
2021/12/23 07:59:23;;;;;;;28.57;16.43;;;0.00;99.90;;;;;;5077286;28;20397;-81
2021/12/23 08:02:07;;;;;;;;;;;0.90;99.90;;;;;;5077646;28;20173;-83
2021/12/23 08:04:52;;;;;;;27.17;16.70;;;0.30;99.90;;;;;;5097619;28;20049;-81
2021/12/23 08:07:36;;;;;;;33.17;16.20;;;0.10;99.90;;;;;;5113345;28;20494;-81
2021/12/23 08:10:20;;;;;;;;;;;0.80;99.90;;;;;;5083536;28;20093;-81
2021/12/23 08:13:06;;;;;;;30.48;18.15;;;0.50;99.90;;;;;;5097437;28;19918;-81
2021/12/23 08:15:50;;;;;;;30.80;17.53;;;0.50;99.90;;;;;;5098010;28;20093;-81
2021/12/23 08:18:34;;;;;;;28.10;17.10;;;0.30;99.90;;;;;;5097453;28;20042;-81
2021/12/23 08:21:18;;;;;;;27.17;16.63;;;0.00;99.90;;;;;;5068910;28;20165;-82
2021/12/23 08:24:03;;;;;;;30.47;16.23;;;0.00;99.90;;;;;;5097408;28;20038;-81
2021/12/23 08:26:52;;;;;;;29.90;17.87;;;0.00;99.90;;;;;;5112514;28;20115;-81
2021/12/23 08:29:37;;;;;;;29.10;17.27;;;0.00;99.90;;;;;;5097341;28;20070;-82
2021/12/23 08:32:23;;;;;;;29.73;17.33;;;0.00;99.90;;;;;;5096942;28;20078;-82
2021/12/23 08:35:08;;;;;;;32.20;18.03;;;0.00;99.90;;;;;;5097592;28;20034;-82
2021/12/23 08:37:52;;;;;;;30.10;17.57;;;0.00;99.90;;;;;;5083579;28;20132;-81
2021/12/23 08:40:36;;;;;;;32.47;17.67;;;0.00;99.90;;;;;;5096255;28;20520;-81
2021/12/23 08:43:21;;;;;;;28.70;17.90;;;0.00;99.90;;;;;;5096389;28;20518;-82
2021/12/23 08:46:05;;;;;;;30.73;18.63;;;0.00;99.90;;;;;;5083305;28;20410;-82
2021/12/23 08:48:49;;;;;;;;;;;0.00;99.90;;;;;;5113008;28;20084;-81
2021/12/23 08:51:35;;;;;;;33.30;18.15;;;0.50;99.90;;;;;;5096623;28;20154;-81
2021/12/23 08:54:20;;;;;;;34.37;19.20;;;0.00;99.90;;;;;;5112136;28;20096;-82
2021/12/23 08:57:05;;;;;;;32.50;18.43;;;0.00;99.90;;;;;;5112577;28;20108;-81
2021/12/23 08:59:49;;;;;;;36.97;19.63;;;0.00;99.90;;;;;;5097298;28;20039;-82
2021/12/23 09:02:33;;;;;;;;;;;0.00;99.90;;;;;;5112371;28;20099;-82
2021/12/23 09:05:19;;;;;;;34.42;18.73;;;0.00;99.90;;;;;;5111943;28;19923;-82
2021/12/23 09:08:05;;;;;;;33.93;19.57;;;0.60;99.90;;;;;;5112451;28;20131;-81
2021/12/23 09:10:49;;;;;;;35.43;20.03;;;0.30;99.90;;;;;;5097076;28;20043;-81
2021/12/23 09:13:34;;;;;;;32.13;19.70;;;0.00;99.90;;;;;;5111859;28;20050;-81
2021/12/23 09:16:18;;;;;;;35.33;19.50;;;0.00;99.90;;;;;;5082353;28;20127;-82
2021/12/23 09:19:03;;;;;;;34.23;20.23;;;0.00;99.90;;;;;;5111948;28;20120;-81
2021/12/23 09:21:47;;;;;;;34.07;20.27;;;0.00;99.90;;;;;;5112487;28;20176;-81
2021/12/23 09:24:32;;;;;;;34.70;20.20;;;0.00;99.90;;;;;;5082257;28;20054;-81
2021/12/23 09:33:36;;;;;;;41.67;20.92;;;0.60;99.90;;;;;;5110528;28;20488;-82
2021/12/23 09:36:21;;;;;;;37.00;22.47;;;0.00;99.90;;;;;;5091185;28;20047;-83
2021/12/23 09:39:05;;;;;;;;;;;1.30;99.90;;;;;;5105556;28;20479;-82
2021/12/23 09:41:49;;;;;;;;;;;0.60;99.90;;;;;;5082262;28;20393;-81
2021/12/23 09:44:34;;;;;;;42.95;21.92;;;0.00;99.90;;;;;;5115428;28;19927;-82
2021/12/23 09:47:19;;;;;;;42.70;23.67;;;0.00;99.90;;;;;;5130989;27;20054;-81
2021/12/23 09:50:08;;;;;;;49.47;25.03;;;0.30;99.90;;;;;;5111838;28;20069;-81
2021/12/23 09:52:54;;;;;;;49.17;24.27;;;0.10;99.90;;;;;;5115354;28;20069;-82
2021/12/23 09:55:38;;;;;;;45.57;24.17;;;0.10;99.90;;;;;;5100151;28;20046;-80
2021/12/23 09:58:24;;;;;;;49.50;25.57;;;0.10;99.90;;;;;;5095229;28;20035;-83
2021/12/23 10:01:08;;;;;;;45.73;24.03;;;0.10;99.90;;;;;;5102676;28;20030;-82
2021/12/23 10:03:52;;;;;;;48.73;24.40;;;0.10;99.90;;;;;;5115996;28;20051;-82
2021/12/23 10:06:37;;;;;;;45.70;25.07;;;0.60;99.90;;;;;;5100122;28;20038;-82
2021/12/23 10:09:40;;;;;;;50.43;25.80;;;0.50;99.90;;;;;;5099785;28;20061;-81
2021/12/23 10:29:17;;;;;;;54.57;25.90;;;0.20;99.90;;;;;;5104893;28;20034;-82
2021/12/23 10:30:56;;;;;;;54.87;27.10;;;0.20;99.90;;;;;;5105657;28;20089;-82
2021/12/23 10:33:48;;;;;;;55.80;27.60;;;0.20;99.90;;;;;;5112126;28;20049;-81
2021/12/23 10:39:37;;;;;;;51.07;27.50;;;0.80;99.90;;;;;;5109411;28;20074;-82
2021/12/23 10:42:27;;;;;;;59.07;28.63;;;0.20;99.90;;;;;;5077890;28;20093;-82
2021/12/23 10:45:13;;;;;;;65.50;30.00;;;0.30;99.90;;;;;;5097210;28;20518;-82
2021/12/23 10:48:05;;;;;;;57.33;29.07;;;0.30;99.90;;;;;;5094856;28;20035;-82
2021/12/23 10:50:56;;;;;;;60.23;27.87;;;0.30;99.90;;;;;;5091098;28;20093;-81
2021/12/23 10:54:19;;;;;;;56.03;29.03;;;0.30;99.90;;;;;;5092319;28;20069;-81
2021/12/23 10:59:51;;;;;;;63.87;29.27;;;0.30;99.90;;;;;;5110085;28;20100;-82
2021/12/23 11:02:37;;;;;;;;;;;0.30;99.90;;;;;;5076708;28;20169;-81
2021/12/23 11:05:26;;;;;;;64.13;27.70;;;0.80;99.90;;;;;;5091707;28;19919;-82
2021/12/23 11:08:21;;;;;;;61.50;29.03;;;0.40;99.90;;;;;;5101407;28;20035;-81
2021/12/23 11:27:29;;;;;;;65.53;29.83;;;1.30;99.90;;;;;;5102510;28;20047;-81
2021/12/23 11:44:57;;;;;;;60.30;29.53;;;0.40;99.90;;;;;;5085550;28;20047;-81
2021/12/23 11:47:42;;;;;;;66.03;30.73;;;0.40;99.90;;;;;;5076199;28;20109;-82
2021/12/23 11:50:33;;;;;;;60.03;28.13;;;0.40;99.90;;;;;;5099763;28;20541;-82
2021/12/23 11:53:17;;;;;;;59.57;27.37;;;1.30;99.90;;;;;;5091867;28;20043;-82
2021/12/23 11:56:04;;;;;;;62.53;29.80;;;0.40;99.90;;;;;;5090050;28;20043;-82
2021/12/23 11:58:49;;;;;;;62.13;28.63;;;0.40;99.90;;;;;;5100659;28;20097;-82
2021/12/23 12:01:46;;;;;;;70.27;31.20;;;0.40;99.90;;;;;;5090860;28;20063;-85
2021/12/23 12:04:35;;;;;;;63.47;30.30;;;0.40;99.90;;;;;;5097120;28;20038;-83
2021/12/23 12:07:22;;;;;;;68.23;30.27;;;0.40;99.90;;;;;;5099676;28;20408;-82
2021/12/23 12:10:09;;;;;;;77.93;32.07;;;0.40;99.90;;;;;;5090613;28;20067;-83
2021/12/23 12:13:02;;;;;;;71.90;29.80;;;0.40;99.90;;;;;;5090139;28;20042;-84
2021/12/23 12:15:48;;;;;;;65.43;31.37;;;0.40;99.90;;;;;;5089749;28;20124;-84
2021/12/23 12:18:45;;;;;;;66.83;31.33;;;0.50;99.90;;;;;;5099691;28;20042;-83
2021/12/23 12:21:35;;;;;;;72.10;33.50;;;0.50;99.90;;;;;;5097097;28;20054;-85
2021/12/23 12:24:19;;;;;;;70.47;30.53;;;0.40;99.90;;;;;;5102834;28;20150;-84
2021/12/23 12:27:09;;;;;;;;;;;0.70;99.90;;;;;;5110094;28;20027;-83
2021/12/23 12:30:06;;;;;;;58.67;27.93;;;0.50;99.90;;;;;;5101391;28;20413;-83
2021/12/23 12:32:50;;;;;;;62.80;29.93;;;0.50;99.90;;;;;;5108233;28;20124;-84
2021/12/23 12:35:35;;;;;;;73.27;31.17;;;0.60;99.90;;;;;;5100198;28;20046;-82
2021/12/23 12:38:26;;;;;;;62.07;29.23;;;0.50;99.90;;;;;;5130299;27;20172;-84
2021/12/23 12:41:17;;;;;;;68.57;29.80;;;0.60;99.90;;;;;;5112098;28;20043;-83
2021/12/23 12:44:36;;;;;;;80.73;30.27;;;0.60;99.90;;;;;;5111627;28;20054;-84
2021/12/23 12:47:26;;;;;;;63.00;28.83;;;0.60;99.90;;;;;;5059577;28;20052;-84
2021/12/23 12:50:13;;;;;;;70.77;30.73;;;0.60;99.90;;;;;;5076592;28;20094;-84
2021/12/23 12:53:05;;;;;;;65.07;28.87;;;0.70;99.90;;;;;;5110820;28;20526;-84
2021/12/23 12:55:58;;;;;;;63.97;29.10;;;0.60;99.90;;;;;;5109314;28;20157;-84
2021/12/23 12:58:51;;;;;;;64.57;29.67;;;0.70;99.90;;;;;;5079486;28;20039;-83
2021/12/23 13:01:42;;;;;;;67.75;29.00;;;0.70;99.90;;;;;;5105378;28;20528;-83
2021/12/23 13:04:46;;;;;;;66.70;30.23;;;1.30;99.90;;;;;;5109941;28;20123;-84
2021/12/23 13:07:40;;;;;;;75.07;30.60;;;0.70;99.90;;;;;;5086822;28;20089;-83
2021/12/23 13:10:31;;;;;;;46.70;21.52;;;0.70;99.90;;;;;;5091087;28;20093;-83
2021/12/23 13:13:35;;;;;;;70.23;29.70;;;0.80;99.90;;;;;;5075344;28;20110;-84
2021/12/23 13:16:23;;;;;;;66.30;29.45;;;1.40;99.90;;;;;;5091018;28;20404;-84
2021/12/23 13:19:17;;;;;;;66.00;28.90;;;1.50;99.90;;;;;;5090053;28;20077;-84
2021/12/23 13:22:06;;;;;;;62.63;29.15;;;0.70;99.90;;;;;;5110529;28;20403;-84
2021/12/23 13:24:55;;;;;;;66.73;30.27;;;0.80;99.90;;;;;;5111466;28;20042;-85
2021/12/23 13:27:41;;;;;;;64.23;29.33;;;0.80;99.90;;;;;;5111054;28;20084;-84
2021/12/23 13:30:26;;;;;;;61.97;29.00;;;1.90;99.90;;;;;;5118269;27;20054;-84
2021/12/23 13:33:12;;;;;;;61.17;28.03;;;2.10;99.90;;;;;;5113309;28;20621;-84
2021/12/23 13:35:58;;;;;;;67.23;29.83;;;0.70;99.90;;;;;;5075381;28;20080;-84
2021/12/23 13:38:44;;;;;;;66.77;30.27;;;2.10;99.90;;;;;;5108949;28;20070;-83
2021/12/23 13:41:30;;;;;;;68.27;31.00;;;0.70;99.90;;;;;;5086573;28;20043;-84
2021/12/23 13:44:14;;;;;;;63.47;28.83;;;0.80;99.90;;;;;;5111995;28;20150;-84
2021/12/23 13:47:00;;;;;;;;;;;0.80;99.90;;;;;;5114463;28;20062;-84
2021/12/23 13:49:53;;;;;;;60.60;27.60;;;0.80;99.90;;;;;;5100753;28;19914;-84
2021/12/23 13:52:40;;;;;;;63.63;28.27;;;0.70;99.90;;;;;;5100971;28;20038;-83
2021/12/23 13:55:26;;;;;;;73.40;30.83;;;1.70;99.90;;;;;;5099021;28;20445;-84
2021/12/23 13:58:11;;;;;;;68.53;30.00;;;0.80;99.90;;;;;;5113167;27;20090;-84
2021/12/23 14:00:55;;;;;;;69.20;31.67;;;0.80;99.90;;;;;;5094490;28;20044;-85
2021/12/23 14:03:40;;;;;;;68.20;30.37;;;2.60;99.90;;;;;;5080318;28;20043;-84
2021/12/23 14:06:24;;;;;;;66.97;29.30;;;0.90;99.90;;;;;;5080323;28;20054;-83
2021/12/23 14:09:08;;;;;;;66.43;29.07;;;1.30;99.90;;;;;;5095071;28;20412;-83
2021/12/23 14:11:53;;;;;;;66.37;29.20;;;1.40;99.90;;;;;;5080246;28;20043;-83
2021/12/23 14:14:49;;;;;;;;;;;0.80;99.90;;;;;;5066641;28;20395;-83
2021/12/23 14:17:38;;;;;;;62.93;28.20;;;1.70;99.90;;;;;;5097934;28;19957;-84
2021/12/23 14:23:39;;;;;;;63.97;27.47;;;0.90;99.90;;;;;;5095465;28;20043;-83
2021/12/23 14:26:29;;;;;;;74.87;31.40;;;0.90;99.90;;;;;;5079687;28;20498;-84
2021/12/23 14:29:14;;;;;;;74.37;29.70;;;1.50;99.90;;;;;;5095695;28;20042;-83
2021/12/23 14:31:59;;;;;;;66.13;29.20;;;1.70;99.90;;;;;;5115366;28;20034;-84
2021/12/23 14:34:43;;;;;;;76.28;32.25;;;1.30;99.90;;;;;;5085639;28;20035;-84
2021/12/23 14:37:27;;;;;;;;;;;1.00;99.90;;;;;;5099733;28;20038;-83
2021/12/23 14:40:11;;;;;;;68.60;29.20;;;1.80;99.90;;;;;;5098261;28;19922;-83
2021/12/23 14:43:02;;;;;;;66.60;30.10;;;1.00;99.90;;;;;;5083562;28;20043;-83
2021/12/23 14:45:59;;;;;;;67.50;29.30;;;1.00;99.90;;;;;;5082873;28;20051;-84
2021/12/23 14:51:50;;;;;;;68.03;30.73;;;0.90;99.90;;;;;;5114827;28;20399;-84
2021/12/23 14:54:34;;;;;;;71.90;31.37;;;1.30;99.90;;;;;;5099498;28;20085;-83
2021/12/23 14:57:22;;;;;;;66.77;29.93;;;1.30;99.90;;;;;;5078833;28;20564;-83
2021/12/23 15:00:17;;;;;;;66.83;28.87;;;0.90;99.90;;;;;;5104345;28;20042;-84
2021/12/23 15:03:22;;;;;;;67.97;31.03;;;0.90;99.90;;;;;;5099434;28;20066;-83
2021/12/23 15:06:08;;;;;;;65.30;30.27;;;0.90;99.90;;;;;;5098870;28;20034;-84
2021/12/23 15:08:52;;;;;;;66.57;28.47;;;0.90;99.90;;;;;;5099335;28;20085;-83
2021/12/23 15:11:37;;;;;;;62.50;27.90;;;0.90;99.90;;;;;;5085442;28;20065;-84
2021/12/23 15:14:21;;;;;;;68.80;29.23;;;0.90;99.90;;;;;;5070376;28;20100;-83
2021/12/23 15:17:13;;;;;;;68.57;29.07;;;0.90;99.90;;;;;;5098844;28;20042;-84
2021/12/23 15:19:58;;;;;;;72.37;30.33;;;1.20;99.90;;;;;;5098625;28;20054;-83
2021/12/23 15:22:44;;;;;;;69.07;30.30;;;1.70;99.90;;;;;;5114003;28;20047;-84
2021/12/23 15:25:34;;;;;;;58.10;27.17;;;0.90;99.90;;;;;;5093580;28;20078;-83
2021/12/23 15:28:18;;;;;;;78.77;31.70;;;1.30;99.90;;;;;;5104906;28;20057;-84
2021/12/23 15:31:03;;;;;;;72.50;29.43;;;0.90;99.90;;;;;;5114485;28;20042;-83
2021/12/23 15:33:47;;;;;;;77.53;30.60;;;1.00;99.90;;;;;;5099156;28;20042;-83